Time;durP1;ratioP1;P1;durP2;ratioP2;P2;SDS_P1;SDS_P2;PMS_P1;PMS_P2;Temp;Humidity;BMP_temperature;BMP_pressure;BME280_temperature;BME280_humidity;BME280_pressure;Samples;Min_cycle;Max_cycle;Signal;HPM_P1;HPM_P2
2022/01/07 00:02:24;;;;;;;7.32;3.13;;;-4.60;99.90;;;;;;5089795;28;20028;-55
2022/01/07 00:05:49;;;;;;;5.68;2.22;;;-4.60;99.90;;;;;;5095330;28;20051;-56
2022/01/07 00:09:15;;;;;;;3.40;1.83;;;-4.50;99.90;;;;;;5091427;28;20035;-57
2022/01/07 00:12:40;;;;;;;4.63;2.30;;;-4.50;99.90;;;;;;5106317;28;20027;-55
2022/01/07 00:16:05;;;;;;;4.97;2.47;;;-4.50;99.90;;;;;;5090437;28;20040;-53
2022/01/07 00:19:31;;;;;;;6.68;2.65;;;-4.60;99.90;;;;;;5089154;28;20440;-54
2022/01/07 00:22:56;;;;;;;11.75;3.65;;;-4.50;99.90;;;;;;5106163;28;20036;-56
2022/01/07 00:26:21;;;;;;;9.68;3.10;;;-4.50;99.90;;;;;;5090165;28;20040;-51
2022/01/07 00:29:47;;;;;;;4.95;2.15;;;-4.60;99.90;;;;;;5089201;28;20372;-55
2022/01/07 00:33:12;;;;;;;2.95;1.83;;;-4.60;99.90;;;;;;5096151;28;20035;-55
2022/01/07 00:36:37;;;;;;;4.50;2.00;;;-4.60;99.90;;;;;;5104403;28;20055;-53
2022/01/07 00:40:03;;;;;;;9.10;2.38;;;-4.50;99.90;;;;;;5103977;28;20062;-54
2022/01/07 00:43:28;;;;;;;5.15;2.42;;;-4.40;99.90;;;;;;5089740;28;20040;-50
2022/01/07 00:46:53;;;;;;;4.50;2.05;;;-4.30;99.90;;;;;;5107288;28;20036;-50
2022/01/07 00:50:20;;;;;;;6.20;2.65;;;-4.20;99.90;;;;;;5103816;28;20031;-47
2022/01/07 00:53:44;;;;;;;6.28;2.47;;;-4.30;99.90;;;;;;5094803;28;20067;-46
2022/01/07 00:57:09;;;;;;;9.48;3.13;;;-4.20;99.90;;;;;;5106765;28;20035;-47
2022/01/07 01:00:35;;;;;;;7.72;2.85;;;-4.20;99.90;;;;;;5107642;28;20049;-47
2022/01/07 01:04:00;;;;;;;6.53;2.63;;;-4.20;99.90;;;;;;5089365;28;20443;-46
2022/01/07 01:07:26;;;;;;;9.18;2.90;;;-4.10;99.90;;;;;;5106374;28;20074;-48
2022/01/07 01:10:51;;;;;;;4.90;2.80;;;-4.10;99.90;;;;;;5091452;28;20101;-47
2022/01/07 01:14:16;;;;;;;7.35;2.65;;;-4.10;99.90;;;;;;5091168;28;20419;-44
2022/01/07 01:17:42;;;;;;;10.07;3.15;;;-4.10;99.90;;;;;;5105093;28;20059;-44
2022/01/07 01:21:07;;;;;;;4.63;2.15;;;-4.10;99.90;;;;;;5090396;28;20495;-47
2022/01/07 01:24:32;;;;;;;7.35;3.05;;;-4.20;99.90;;;;;;5086799;28;20036;-50
2022/01/07 01:27:58;;;;;;;7.03;3.10;;;-4.20;99.90;;;;;;5101216;28;20027;-47
2022/01/07 01:31:23;;;;;;;6.70;2.58;;;-4.30;99.90;;;;;;5089186;28;20055;-49
2022/01/07 01:34:48;;;;;;;5.25;2.15;;;-4.30;99.90;;;;;;5091786;28;20028;-50
2022/01/07 01:38:14;;;;;;;7.45;2.65;;;-4.30;99.90;;;;;;5094910;28;20031;-45
2022/01/07 01:41:39;;;;;;;12.90;3.20;;;-4.40;99.90;;;;;;5103278;28;20546;-50
2022/01/07 01:45:04;;;;;;;9.07;3.10;;;-4.40;99.90;;;;;;5106865;28;20048;-50
2022/01/07 01:48:30;;;;;;;5.55;1.75;;;-4.50;99.90;;;;;;5092417;28;20039;-49
2022/01/07 01:51:55;;;;;;;6.65;3.13;;;-4.50;99.90;;;;;;5103358;28;20379;-50
2022/01/07 01:55:20;;;;;;;4.10;2.25;;;-4.50;99.90;;;;;;5106954;28;20220;-51
2022/01/07 01:58:46;;;;;;;5.65;1.90;;;-4.40;99.90;;;;;;5097180;28;20067;-47
2022/01/07 02:02:11;;;;;;;6.03;2.53;;;-4.30;99.90;;;;;;5107166;28;20061;-52
2022/01/07 02:05:37;;;;;;;10.75;2.97;;;-4.20;99.90;;;;;;5107156;28;20046;-49
2022/01/07 02:09:02;;;;;;;10.27;3.80;;;-4.10;99.90;;;;;;5094470;28;20471;-48
2022/01/07 02:12:27;;;;;;;4.47;2.20;;;-4.00;99.90;;;;;;5107666;28;20024;-48
2022/01/07 02:15:53;;;;;;;12.05;2.95;;;-3.90;99.90;;;;;;5095294;28;20040;-49
2022/01/07 02:19:18;;;;;;;8.57;2.53;;;-4.00;99.90;;;;;;5090312;28;20033;-47
2022/01/07 02:22:44;;;;;;;6.47;2.28;;;-4.10;99.90;;;;;;5090033;28;20403;-48
2022/01/07 02:26:10;;;;;;;7.95;2.63;;;-4.20;99.90;;;;;;5109404;28;20039;-47
2022/01/07 02:29:36;;;;;;;8.60;2.25;;;-4.20;99.90;;;;;;5089992;28;20047;-45
2022/01/07 02:33:00;;;;;;;8.32;2.78;;;-4.30;99.90;;;;;;5099698;28;20372;-71
2022/01/07 02:36:28;;;;;;;6.95;2.17;;;-4.30;99.90;;;;;;5091958;28;20032;-72
2022/01/07 02:39:54;;;;;;;4.93;2.22;;;-4.50;99.90;;;;;;5110757;28;20059;-71
2022/01/07 02:43:19;;;;;;;4.82;1.80;;;-4.60;99.90;;;;;;5097696;28;20494;-72
2022/01/07 02:46:45;;;;;;;5.22;2.15;;;-4.60;99.90;;;;;;5106990;28;20036;-71
2022/01/07 02:50:09;;;;;;;5.78;2.53;;;-4.60;99.90;;;;;;5093346;28;20089;-72
2022/01/07 02:53:35;;;;;;;5.57;2.28;;;-4.60;99.90;;;;;;5089448;28;20032;-71
2022/01/07 02:57:00;;;;;;;7.93;2.65;;;-4.70;99.90;;;;;;5089748;28;20105;-72
2022/01/07 03:00:26;;;;;;;8.07;2.53;;;-4.60;99.90;;;;;;5109944;28;20027;-71
2022/01/07 03:03:51;;;;;;;5.20;1.98;;;-4.60;99.90;;;;;;5089278;28;20188;-71
2022/01/07 03:07:16;;;;;;;3.42;2.33;;;-4.60;99.90;;;;;;5103730;28;20346;-72
2022/01/07 03:10:42;;;;;;;7.32;2.80;;;-4.50;99.90;;;;;;5092828;28;20036;-71
2022/01/07 03:14:07;;;;;;;6.45;2.92;;;-4.40;99.90;;;;;;5105917;28;20486;-72
2022/01/07 03:17:32;;;;;;;7.50;2.60;;;-4.20;99.90;;;;;;5107436;28;20043;-72
2022/01/07 03:20:59;;;;;;;8.27;3.45;;;-4.10;99.90;;;;;;5091110;28;20028;-71
2022/01/07 03:24:23;;;;;;;4.75;2.60;;;-4.10;99.90;;;;;;5091063;28;20044;-72
2022/01/07 03:27:48;;;;;;;6.82;3.53;;;-4.00;99.90;;;;;;5098706;28;20039;-71
2022/01/07 03:31:14;;;;;;;6.97;2.95;;;-3.80;99.90;;;;;;5108130;28;20118;-71
2022/01/07 03:34:39;;;;;;;7.75;3.03;;;-3.80;99.90;;;;;;5090935;28;20040;-72
2022/01/07 03:38:04;;;;;;;6.13;3.42;;;-3.80;99.90;;;;;;5089084;28;20033;-72
2022/01/07 03:41:30;;;;;;;8.02;3.17;;;-3.70;99.90;;;;;;5105514;28;20655;-72
2022/01/07 03:44:55;;;;;;;10.68;3.67;;;-3.70;99.90;;;;;;5108879;28;20064;-72
2022/01/07 03:48:21;;;;;;;8.57;3.42;;;-3.60;99.90;;;;;;5093098;28;20063;-72
2022/01/07 03:51:46;;;;;;;9.60;3.00;;;-3.60;99.90;;;;;;5103042;28;20368;-72
2022/01/07 03:55:11;;;;;;;9.70;4.45;;;-3.60;99.90;;;;;;5091945;28;20351;-72
2022/01/07 03:58:37;;;;;;;8.40;3.22;;;-3.60;99.90;;;;;;5088377;28;20094;-72
2022/01/07 04:02:02;;;;;;;14.65;5.57;;;-3.50;99.90;;;;;;5103018;28;20046;-72
2022/01/07 04:05:27;;;;;;;14.95;5.03;;;-3.40;99.90;;;;;;5092269;28;20041;-72
2022/01/07 04:08:53;;;;;;;7.45;3.47;;;-3.30;99.90;;;;;;5088033;28;20443;-72
2022/01/07 04:12:18;;;;;;;9.60;3.28;;;-3.30;99.90;;;;;;5095947;28;20052;-73
2022/01/07 04:15:44;;;;;;;11.95;5.05;;;-3.20;99.90;;;;;;5108554;28;20027;-72
2022/01/07 04:19:09;;;;;;;8.95;3.80;;;-3.20;99.90;;;;;;5105478;28;20404;-73
2022/01/07 04:22:34;;;;;;;9.50;4.38;;;-3.10;99.90;;;;;;5095104;28;20032;-72
2022/01/07 04:26:00;;;;;;;10.55;4.10;;;-3.00;99.90;;;;;;5108389;28;20491;-73
2022/01/07 04:29:25;;;;;;;13.10;6.30;;;-2.80;99.90;;;;;;5104228;28;20043;-72
2022/01/07 04:32:52;;;;;;;10.07;4.93;;;-2.70;99.90;;;;;;5092634;28;20157;-71
2022/01/07 04:36:17;;;;;;;9.40;4.60;;;-2.50;99.90;;;;;;5107669;28;20028;-72
2022/01/07 04:39:41;;;;;;;11.88;3.90;;;-2.50;99.90;;;;;;5104150;28;20032;-71
2022/01/07 04:43:06;;;;;;;6.07;3.47;;;-2.40;99.90;;;;;;5095364;28;20044;-71
2022/01/07 04:46:32;;;;;;;12.40;4.43;;;-2.40;99.90;;;;;;5103899;28;20047;-72
2022/01/07 04:49:57;;;;;;;13.35;4.93;;;-2.40;99.90;;;;;;5107782;28;20070;-72
2022/01/07 04:53:22;;;;;;;13.27;5.50;;;-2.30;99.90;;;;;;5091652;28;20039;-57
2022/01/07 04:56:48;;;;;;;18.05;5.65;;;-2.30;99.90;;;;;;5101891;28;20031;-55
2022/01/07 05:00:13;;;;;;;13.05;5.22;;;-2.30;99.90;;;;;;5089072;28;20122;-56
2022/01/07 05:03:39;;;;;;;10.95;4.90;;;-2.20;99.90;;;;;;5088939;28;20040;-55
2022/01/07 05:07:04;;;;;;;16.48;4.90;;;-2.10;99.90;;;;;;5089032;28;20036;-57
2022/01/07 05:10:29;;;;;;;17.73;5.88;;;-2.10;99.90;;;;;;5087372;28;20411;-56
2022/01/07 05:13:55;;;;;;;17.52;5.80;;;-2.10;99.90;;;;;;5101717;28;20055;-56
2022/01/07 05:17:20;;;;;;;13.88;6.40;;;-2.10;99.90;;;;;;5103640;28;20488;-57
2022/01/07 05:20:48;;;;;;;23.75;7.03;;;-2.10;99.90;;;;;;5085145;28;20038;-57
2022/01/07 05:24:11;;;;;;;15.60;6.38;;;-2.00;99.90;;;;;;5105034;28;20047;-57
2022/01/07 05:27:36;;;;;;;17.60;5.43;;;-2.10;99.90;;;;;;5088875;28;20403;-56
2022/01/07 05:31:03;;;;;;;11.40;4.95;;;-2.10;99.90;;;;;;5107150;28;20038;-56
2022/01/07 05:34:27;;;;;;;11.80;5.45;;;-2.10;99.90;;;;;;5103621;28;20571;-54
2022/01/07 05:37:52;;;;;;;15.93;4.93;;;-2.10;99.90;;;;;;5088830;28;20157;-58
2022/01/07 05:41:17;;;;;;;9.80;4.95;;;-2.10;99.90;;;;;;5101085;28;20047;-56
2022/01/07 05:44:03;;;;;;;14.75;5.90;;;-2.10;99.90;;;;;;5095569;28;20048;-57
2022/01/07 05:46:28;;;;;;;19.13;6.72;;;-2.10;99.90;;;;;;5108249;28;20414;-57
2022/01/07 05:48:54;;;;;;;9.85;5.20;;;-2.00;99.90;;;;;;5090250;28;20028;-56
2022/01/07 05:51:59;;;;;;;11.90;4.90;;;-2.00;99.90;;;;;;5108322;28;20024;-57
2022/01/07 05:55:25;;;;;;;10.27;4.45;;;-2.00;99.90;;;;;;5091813;28;20031;-58
2022/01/07 05:58:50;;;;;;;11.48;5.72;;;-2.10;99.90;;;;;;5102195;28;20032;-58
2022/01/07 06:02:15;;;;;;;20.55;6.25;;;-2.00;99.90;;;;;;5100298;28;20069;-57
2022/01/07 06:05:41;;;;;;;11.60;4.47;;;-2.10;99.90;;;;;;5089294;28;20036;-57
2022/01/07 06:09:06;;;;;;;8.85;4.85;;;-2.10;99.90;;;;;;5085681;28;20047;-57
2022/01/07 06:12:31;;;;;;;11.65;5.13;;;-2.10;99.90;;;;;;5103852;28;20387;-57
2022/01/07 06:15:57;;;;;;;13.63;4.88;;;-2.10;99.90;;;;;;5087540;28;20494;-57
2022/01/07 06:19:22;;;;;;;9.88;5.15;;;-2.00;99.90;;;;;;5105914;28;20032;-54
2022/01/07 06:22:48;;;;;;;15.85;6.38;;;-1.90;99.90;;;;;;5093706;28;20111;-56
2022/01/07 06:26:13;;;;;;;9.27;4.97;;;-1.90;99.90;;;;;;5106585;28;20050;-59
2022/01/07 06:29:39;;;;;;;13.18;4.70;;;-1.90;99.90;;;;;;5104513;28;20277;-57
2022/01/07 06:33:04;;;;;;;10.50;4.95;;;-1.90;99.90;;;;;;5089761;28;20442;-57
2022/01/07 06:36:30;;;;;;;9.10;4.32;;;-1.90;99.90;;;;;;5106344;28;20035;-58
2022/01/07 06:39:55;;;;;;;10.68;4.68;;;-1.90;99.90;;;;;;5102235;28;20032;-57
2022/01/07 06:43:20;;;;;;;17.63;5.95;;;-1.90;99.90;;;;;;5081478;28;20113;-58
2022/01/07 06:46:45;;;;;;;19.83;5.93;;;-1.90;99.90;;;;;;5106198;28;20036;-58
2022/01/07 06:50:10;;;;;;;12.43;4.57;;;-1.80;99.90;;;;;;5110053;28;20452;-58
2022/01/07 06:53:36;;;;;;;12.88;5.43;;;-1.80;99.90;;;;;;5093687;28;20039;-57
2022/01/07 06:57:01;;;;;;;13.07;5.20;;;-1.80;99.90;;;;;;5107979;28;20035;-58
2022/01/07 07:00:27;;;;;;;13.35;5.68;;;-1.80;99.90;;;;;;5093002;28;20028;-57
2022/01/07 07:03:52;;;;;;;15.88;5.30;;;-1.80;99.90;;;;;;5089295;28;20139;-58
2022/01/07 07:07:17;;;;;;;9.63;4.60;;;-1.80;99.90;;;;;;5103596;28;20486;-56
2022/01/07 07:10:43;;;;;;;11.35;4.97;;;-1.80;99.90;;;;;;5091174;28;20043;-58
2022/01/07 07:14:08;;;;;;;8.52;3.85;;;-1.80;99.90;;;;;;5089142;28;20051;-57
2022/01/07 07:17:33;;;;;;;11.13;4.40;;;-1.80;99.90;;;;;;5103623;28;20032;-58
2022/01/07 07:20:59;;;;;;;16.65;5.47;;;-1.80;99.90;;;;;;5105366;28;20406;-56
2022/01/07 07:24:24;;;;;;;9.23;4.18;;;-1.70;99.90;;;;;;5105433;28;20044;-58
2022/01/07 07:27:50;;;;;;;12.48;4.55;;;-1.70;99.90;;;;;;5095679;28;20380;-57
2022/01/07 07:31:17;;;;;;;16.83;5.28;;;-1.70;99.90;;;;;;5105229;28;20043;-58
2022/01/07 07:37:46;;;;;;;13.73;5.63;;;-1.50;99.90;;;;;;5096272;28;20028;-59
2022/01/07 07:41:11;;;;;;;15.35;4.82;;;-1.50;99.90;;;;;;5105230;28;20056;-58
2022/01/07 07:44:36;;;;;;;18.63;5.43;;;-1.40;99.90;;;;;;5101607;28;20413;-58
2022/01/07 07:48:02;;;;;;;10.45;4.68;;;-1.40;99.90;;;;;;5096481;28;20028;-57
2022/01/07 07:51:27;;;;;;;14.02;4.78;;;-1.30;99.90;;;;;;5108741;28;20031;-57
2022/01/07 07:54:52;;;;;;;10.45;4.53;;;-1.30;99.90;;;;;;5108528;28;20031;-59
2022/01/07 07:58:18;;;;;;;15.10;5.35;;;-1.20;99.90;;;;;;5095100;28;20044;-58
2022/01/07 08:01:43;;;;;;;12.20;5.47;;;-1.20;99.90;;;;;;5108616;28;20496;-56
2022/01/07 08:05:08;;;;;;;13.32;4.28;;;-1.10;99.90;;;;;;5107361;28;20052;-58
2022/01/07 08:08:34;;;;;;;9.57;4.35;;;-1.10;99.90;;;;;;5092500;28;20480;-58
2022/01/07 08:12:08;;;;;;;9.18;4.18;;;-1.00;99.90;;;;;;5106198;28;20035;-58
2022/01/07 08:18:49;;;;;;;8.27;3.75;;;-0.90;99.90;;;;;;5088019;28;20039;-59
2022/01/07 08:22:14;;;;;;;14.23;4.22;;;-0.70;99.90;;;;;;5102183;28;20039;-59
2022/01/07 08:25:40;;;;;;;8.93;5.30;;;-0.60;99.90;;;;;;5089670;28;20032;-58
2022/01/07 08:29:08;;;;;;;16.15;5.72;;;-0.50;99.90;;;;;;5087724;28;20341;-58
2022/01/07 08:36:49;;;;;;;13.40;5.28;;;0.00;99.90;;;;;;5087813;28;20407;-74
2022/01/07 08:39:15;;;;;;;14.43;4.70;;;0.10;99.90;;;;;;5089596;28;20028;-73
2022/01/07 08:41:42;;;;;;;9.07;3.80;;;0.20;99.90;;;;;;5100551;28;20020;-73
2022/01/07 08:44:09;;;;;;;11.60;4.35;;;0.30;99.90;;;;;;5109773;28;20063;-74
2022/01/07 08:46:35;;;;;;;11.30;4.35;;;0.30;99.90;;;;;;5090743;28;20032;-73
2022/01/07 08:49:01;;;;;;;10.65;3.85;;;0.30;99.90;;;;;;5109741;28;20524;-73
2022/01/07 08:51:26;;;;;;;7.47;3.50;;;0.40;99.90;;;;;;5089753;28;20060;-58
2022/01/07 08:53:53;;;;;;;7.88;3.72;;;0.40;99.90;;;;;;5109744;28;20023;-56
2022/01/07 08:56:18;;;;;;;6.78;3.22;;;0.40;99.90;;;;;;5088088;28;20407;-57
2022/01/07 08:58:44;;;;;;;12.98;4.50;;;0.50;99.90;;;;;;5109653;28;20046;-57
2022/01/07 09:01:10;;;;;;;11.48;3.92;;;0.50;99.90;;;;;;5089590;28;20039;-56
2022/01/07 09:03:35;;;;;;;10.65;4.18;;;0.60;99.90;;;;;;5106879;28;20091;-56
2022/01/07 09:06:01;;;;;;;13.10;4.88;;;0.60;99.90;;;;;;5088872;28;20534;-57
2022/01/07 09:08:26;;;;;;;12.88;4.03;;;0.60;99.90;;;;;;5088474;28;20032;-57
2022/01/07 09:10:52;;;;;;;16.27;6.43;;;0.70;99.90;;;;;;5108665;28;20569;-57
2022/01/07 09:13:19;;;;;;;13.00;5.22;;;0.70;99.90;;;;;;5087511;28;20027;-57
2022/01/07 09:15:45;;;;;;;7.75;4.18;;;0.80;99.90;;;;;;5108930;28;20053;-56
2022/01/07 09:18:11;;;;;;;7.93;4.07;;;0.80;99.90;;;;;;5087589;28;20479;-57
2022/01/07 09:20:43;;;;;;;14.88;4.95;;;0.90;99.90;;;;;;5108370;28;20042;-56
2022/01/07 09:23:10;;;;;;;10.43;3.97;;;1.00;99.90;;;;;;5087189;28;20040;-56
2022/01/07 09:25:36;;;;;;;11.15;5.03;;;1.00;99.90;;;;;;5108474;28;20367;-58
2022/01/07 09:28:02;;;;;;;7.03;3.45;;;1.10;99.90;;;;;;5096231;28;20058;-58
2022/01/07 09:30:28;;;;;;;9.15;3.78;;;1.10;99.90;;;;;;5089168;28;20492;-55
2022/01/07 09:32:54;;;;;;;8.30;3.47;;;1.20;99.90;;;;;;5092418;28;20085;-58
2022/01/07 09:35:20;;;;;;;10.10;4.00;;;1.30;99.90;;;;;;5108160;28;20037;-58
2022/01/07 09:37:45;;;;;;;9.85;3.95;;;1.30;99.90;;;;;;5087356;28;20028;-56
2022/01/07 09:40:12;;;;;;;10.95;3.63;;;1.40;99.90;;;;;;5108217;28;20031;-58
2022/01/07 09:42:39;;;;;;;13.45;3.53;;;1.50;99.90;;;;;;5090263;28;20024;-57
2022/01/07 09:45:05;;;;;;;14.32;4.82;;;1.50;99.90;;;;;;5088940;28;20028;-57
2022/01/07 09:47:31;;;;;;;10.10;3.13;;;1.60;99.90;;;;;;5106334;28;20063;-59
2022/01/07 09:49:56;;;;;;;5.85;3.13;;;1.70;99.90;;;;;;5088816;28;20568;-57
2022/01/07 09:52:24;;;;;;;8.90;2.92;;;1.90;99.90;;;;;;5106127;28;20027;-58
2022/01/07 09:54:50;;;;;;;6.90;3.25;;;2.00;99.90;;;;;;5088721;28;20028;-58
2022/01/07 09:57:15;;;;;;;12.18;3.10;;;2.10;99.90;;;;;;5105832;28;20027;-58
2022/01/07 09:59:41;;;;;;;8.93;3.22;;;2.10;99.90;;;;;;5089080;28;20036;-58
2022/01/07 10:02:09;;;;;;;8.15;2.97;;;2.20;99.90;;;;;;5105960;28;20399;-57
2022/01/07 10:04:39;;;;;;;11.23;3.83;;;2.40;99.90;;;;;;5108635;28;20032;-58
2022/01/07 10:07:10;;;;;;;15.63;3.88;;;2.50;99.90;;;;;;5086296;28;20580;-57
2022/01/07 10:09:37;;;;;;;6.15;3.08;;;2.60;99.90;;;;;;5088149;28;20028;-59
2022/01/07 10:12:03;;;;;;;11.63;3.47;;;2.60;99.90;;;;;;5106120;28;20315;-58
2022/01/07 10:14:32;;;;;;;8.57;3.78;;;2.60;99.90;;;;;;5108753;28;20028;-59
2022/01/07 10:17:00;;;;;;;6.00;3.20;;;2.60;99.90;;;;;;5092273;28;20028;-58
2022/01/07 10:19:37;;;;;;;5.70;2.95;;;2.60;99.90;;;;;;5112078;28;20471;-58
2022/01/07 10:22:07;;;;;;;7.70;3.35;;;2.70;99.90;;;;;;5096957;28;20558;-58
2022/01/07 10:25:00;;;;;;;9.85;3.33;;;2.60;99.90;;;;;;5112544;28;20236;-59
2022/01/07 10:27:33;;;;;;;6.85;3.28;;;2.50;99.90;;;;;;5090058;28;20097;-59
2022/01/07 10:29:59;;;;;;;8.20;3.30;;;2.50;99.90;;;;;;5091989;28;20040;-59
2022/01/07 10:32:31;;;;;;;6.50;3.08;;;2.50;99.90;;;;;;5109839;28;20034;-59
2022/01/07 10:35:05;;;;;;;7.60;3.55;;;2.50;99.90;;;;;;5091507;28;20028;-59
2022/01/07 10:37:30;;;;;;;8.52;3.17;;;2.60;99.90;;;;;;5110253;28;20034;-59
2022/01/07 10:39:56;;;;;;;7.25;3.65;;;2.70;99.90;;;;;;5092134;28;20023;-59
2022/01/07 10:42:25;;;;;;;7.47;3.75;;;2.80;99.90;;;;;;5104464;28;20028;-59
2022/01/07 10:45:02;;;;;;;7.53;3.40;;;2.90;99.90;;;;;;5091726;28;20561;-59
2022/01/07 10:47:28;;;;;;;8.13;3.60;;;3.00;99.90;;;;;;5089785;28;20031;-59
2022/01/07 10:50:13;;;;;;;11.27;4.55;;;3.00;99.90;;;;;;5111291;28;20569;-59
2022/01/07 10:52:39;;;;;;;6.80;3.90;;;3.00;99.90;;;;;;5090096;28;20028;-60
2022/01/07 10:55:18;;;;;;;10.13;4.35;;;3.00;99.90;;;;;;5111175;28;20051;-59
2022/01/07 10:57:46;;;;;;;6.97;2.95;;;3.00;99.90;;;;;;5102339;28;20034;-59
2022/01/07 11:00:20;;;;;;;9.50;3.60;;;3.10;99.90;;;;;;5091587;28;20319;-59
2022/01/07 11:02:47;;;;;;;6.93;3.40;;;3.10;99.90;;;;;;5102418;28;20510;-59
2022/01/07 11:05:13;;;;;;;15.82;5.10;;;3.20;99.90;;;;;;5091496;28;20232;-59
2022/01/07 11:07:39;;;;;;;8.05;4.47;;;3.30;99.90;;;;;;5097152;28;20482;-59
2022/01/07 11:10:07;;;;;;;14.75;4.68;;;3.20;99.90;;;;;;5110929;28;20035;-58
2022/01/07 11:12:34;;;;;;;8.82;3.40;;;3.30;99.90;;;;;;5100530;28;20268;-59
2022/01/07 11:15:01;;;;;;;5.68;2.85;;;3.30;99.90;;;;;;5091462;28;20028;-59
2022/01/07 11:17:27;;;;;;;5.38;3.28;;;3.40;99.90;;;;;;5109029;28;20234;-59
2022/01/07 11:19:57;;;;;;;7.53;2.83;;;3.40;99.90;;;;;;5091555;28;20251;-59
2022/01/07 11:22:24;;;;;;;8.27;3.55;;;3.40;99.90;;;;;;5108975;28;20482;-59
2022/01/07 11:24:53;;;;;;;15.82;3.88;;;3.40;99.90;;;;;;5091300;28;20410;-59
2022/01/07 11:27:21;;;;;;;8.93;3.53;;;3.40;99.90;;;;;;5108826;28;20054;-59
2022/01/07 11:29:52;;;;;;;13.70;3.42;;;3.40;99.90;;;;;;5090572;28;20130;-59
2022/01/07 11:32:27;;;;;;;11.05;4.13;;;3.40;99.90;;;;;;5108440;28;20031;-59
2022/01/07 11:34:57;;;;;;;10.95;4.32;;;3.30;99.90;;;;;;5091280;28;20266;-59
2022/01/07 11:37:40;;;;;;;10.93;3.70;;;3.20;99.90;;;;;;5108616;28;20552;-59
2022/01/07 11:40:06;;;;;;;7.68;3.70;;;3.20;99.90;;;;;;5090804;28;20036;-59
2022/01/07 11:42:44;;;;;;;10.57;3.40;;;3.20;99.90;;;;;;5101580;28;20027;-59
2022/01/07 11:45:29;;;;;;;9.70;3.40;;;3.20;99.90;;;;;;5090615;28;20559;-59
2022/01/07 11:48:11;;;;;;;7.70;3.38;;;3.20;99.90;;;;;;5094384;28;20036;-59
2022/01/07 11:50:47;;;;;;;14.18;4.57;;;3.20;99.90;;;;;;5110160;28;20019;-59
2022/01/07 11:53:13;;;;;;;11.43;3.80;;;3.20;99.90;;;;;;5088963;28;20036;-59
2022/01/07 11:55:39;;;;;;;7.60;3.55;;;3.10;99.90;;;;;;5110128;28;20035;-59
2022/01/07 11:58:07;;;;;;;9.00;3.75;;;3.10;99.90;;;;;;5089018;28;20047;-58
2022/01/07 12:00:56;;;;;;;5.15;3.00;;;3.10;99.90;;;;;;5110095;28;20550;-59
2022/01/07 12:03:32;;;;;;;10.32;3.80;;;3.20;99.90;;;;;;5088705;28;20705;-59
2022/01/07 12:05:58;;;;;;;11.15;3.20;;;3.20;99.90;;;;;;5109892;28;20082;-58
2022/01/07 12:08:41;;;;;;;8.52;3.83;;;3.30;99.90;;;;;;5088746;28;20395;-59
2022/01/07 12:11:09;;;;;;;8.30;3.63;;;3.30;99.90;;;;;;5109903;28;20396;-59
2022/01/07 12:13:39;;;;;;;9.75;3.78;;;3.30;99.90;;;;;;5088281;28;20020;-57
2022/01/07 12:16:06;;;;;;;16.88;4.78;;;3.30;99.90;;;;;;5109968;28;20035;-59
2022/01/07 12:18:35;;;;;;;7.65;3.72;;;3.30;99.90;;;;;;5088431;28;20106;-56
2022/01/07 12:21:02;;;;;;;11.05;3.70;;;3.20;99.90;;;;;;5110120;28;20054;-59
2022/01/07 12:23:27;;;;;;;10.43;3.70;;;3.20;99.90;;;;;;5088480;28;20580;-57
2022/01/07 12:25:54;;;;;;;16.23;4.32;;;3.30;99.90;;;;;;5109396;28;20115;-57
2022/01/07 12:28:21;;;;;;;8.23;3.33;;;3.30;99.90;;;;;;5087990;28;20127;-57
2022/01/07 12:30:49;;;;;;;10.05;4.10;;;3.30;99.90;;;;;;5109548;28;20026;-58
2022/01/07 12:33:15;;;;;;;9.35;3.67;;;3.30;99.90;;;;;;5087786;28;20032;-58
2022/01/07 12:35:42;;;;;;;8.57;3.45;;;3.40;99.90;;;;;;5109481;28;20051;-58
2022/01/07 12:38:19;;;;;;;10.18;3.85;;;3.40;99.90;;;;;;5088084;28;20036;-57
2022/01/07 12:40:53;;;;;;;5.53;2.78;;;3.40;99.90;;;;;;5088776;28;20021;-56
2022/01/07 12:43:28;;;;;;;7.13;3.45;;;3.50;99.90;;;;;;5086881;28;20036;-56
2022/01/07 12:46:02;;;;;;;11.27;3.38;;;3.40;99.90;;;;;;5089342;28;20179;-56
2022/01/07 12:48:33;;;;;;;12.38;3.60;;;3.40;99.90;;;;;;5106413;28;20567;-57
2022/01/07 12:51:03;;;;;;;7.90;3.13;;;3.40;99.90;;;;;;5089385;28;20031;-56
2022/01/07 12:53:29;;;;;;;6.97;3.25;;;3.40;99.90;;;;;;5088702;28;20046;-49
2022/01/07 12:55:55;;;;;;;8.57;3.28;;;3.40;99.90;;;;;;5108845;28;20024;-48
2022/01/07 12:58:27;;;;;;;10.60;3.30;;;3.40;99.90;;;;;;5087845;28;20038;-47
2022/01/07 13:00:53;;;;;;;5.97;2.95;;;3.30;99.90;;;;;;5108855;28;20047;-48
2022/01/07 13:03:25;;;;;;;11.07;4.07;;;3.30;99.90;;;;;;5087604;28;20039;-46
2022/01/07 13:05:51;;;;;;;13.55;3.97;;;3.30;99.90;;;;;;5089132;28;20035;-47
2022/01/07 13:08:19;;;;;;;11.00;3.55;;;3.20;99.90;;;;;;5089523;28;20028;-48
2022/01/07 13:10:49;;;;;;;10.43;4.05;;;3.20;99.90;;;;;;5108996;28;20486;-45
2022/01/07 13:13:26;;;;;;;7.75;4.20;;;3.20;99.90;;;;;;5086942;28;20024;-50
2022/01/07 13:15:58;;;;;;;8.98;3.47;;;3.20;99.90;;;;;;5089048;28;20032;-49
2022/01/07 13:18:27;;;;;;;7.70;3.50;;;3.20;99.90;;;;;;5089022;28;20039;-45
2022/01/07 13:21:15;;;;;;;10.02;3.97;;;3.20;99.90;;;;;;5108880;28;20569;-45
2022/01/07 13:24:02;;;;;;;8.52;3.30;;;3.20;99.90;;;;;;5089005;28;20044;-48
2022/01/07 13:26:36;;;;;;;9.15;3.63;;;3.20;99.90;;;;;;5106599;28;20030;-50
2022/01/07 13:29:17;;;;;;;13.55;4.57;;;3.20;99.90;;;;;;5088997;28;20062;-49
2022/01/07 13:31:46;;;;;;;9.65;3.17;;;3.20;99.90;;;;;;5088961;28;20114;-48
2022/01/07 13:34:19;;;;;;;8.98;3.90;;;3.20;99.90;;;;;;5106789;28;20035;-47
2022/01/07 13:37:25;;;;;;;8.02;3.70;;;3.20;99.90;;;;;;5109233;28;20084;-47
2022/01/07 13:40:50;;;;;;;8.00;3.22;;;3.20;99.90;;;;;;5092833;28;20040;-48
2022/01/07 13:44:22;;;;;;;7.10;3.00;;;3.10;99.90;;;;;;5102079;28;20044;-52
2022/01/07 13:47:48;;;;;;;9.38;3.25;;;3.10;99.90;;;;;;5103228;28;20035;-47
2022/01/07 13:51:12;;;;;;;8.13;3.58;;;3.10;99.90;;;;;;5089330;28;20104;-48
2022/01/07 13:54:47;;;;;;;6.22;2.92;;;3.00;99.90;;;;;;5107386;28;20028;-51
2022/01/07 13:58:12;;;;;;;8.73;3.75;;;3.00;99.90;;;;;;5097218;28;20076;-50
2022/01/07 14:01:37;;;;;;;5.38;3.10;;;3.00;99.90;;;;;;5104218;28;20030;-49
2022/01/07 14:05:30;;;;;;;5.90;3.40;;;3.00;99.90;;;;;;5096785;28;20050;-52
2022/01/07 14:09:01;;;;;;;7.80;3.50;;;3.00;99.90;;;;;;5026408;28;20475;-45
2022/01/07 14:12:35;;;;;;;13.50;4.30;;;3.00;99.90;;;;;;5047301;28;20069;-50
2022/01/07 14:16:01;;;;;;;9.75;3.53;;;2.90;99.90;;;;;;5108959;28;20569;-48
2022/01/07 14:19:26;;;;;;;8.95;3.90;;;2.90;99.90;;;;;;5103491;28;20043;-49
2022/01/07 14:22:51;;;;;;;9.27;4.18;;;2.90;99.90;;;;;;5105640;28;20059;-46
2022/01/07 14:26:25;;;;;;;11.35;4.35;;;2.80;99.90;;;;;;5109666;28;20046;-51
2022/01/07 14:29:49;;;;;;;16.80;4.72;;;2.80;99.90;;;;;;5107324;28;20044;-51
2022/01/07 14:32:14;;;;;;;10.80;2.95;;;2.70;99.90;;;;;;5091019;28;20114;-65
2022/01/07 14:35:20;;;;;;;10.00;4.07;;;2.70;99.90;;;;;;5094584;28;20110;-63
2022/01/07 14:38:48;;;;;;;9.35;4.40;;;2.60;99.90;;;;;;5103570;28;20036;-61
2022/01/07 14:42:11;;;;;;;10.52;4.32;;;2.60;99.90;;;;;;5090964;28;20032;-63
2022/01/07 14:45:36;;;;;;;9.30;3.95;;;2.50;99.90;;;;;;5089667;28;20132;-64
2022/01/07 14:49:01;;;;;;;7.25;4.13;;;2.50;99.90;;;;;;5106907;28;20122;-62
2022/01/07 14:52:27;;;;;;;9.38;4.22;;;2.50;99.90;;;;;;5090689;28;20670;-61
2022/01/07 14:55:52;;;;;;;12.52;4.40;;;2.50;99.90;;;;;;5088794;28;20044;-64
2022/01/07 14:59:17;;;;;;;12.70;4.13;;;2.40;99.90;;;;;;5105506;28;20035;-63
2022/01/07 15:02:43;;;;;;;14.32;4.20;;;2.40;99.90;;;;;;5091022;28;20032;-63
2022/01/07 15:06:08;;;;;;;9.43;3.60;;;2.40;99.90;;;;;;5104456;28;20055;-64
2022/01/07 15:09:33;;;;;;;12.25;4.15;;;2.30;99.90;;;;;;5096285;28;20032;-65
2022/01/07 15:12:59;;;;;;;15.27;4.63;;;2.30;99.90;;;;;;5104706;28;20043;-65
2022/01/07 15:16:36;;;;;;;11.98;4.82;;;2.30;99.90;;;;;;5104895;28;20028;-65
2022/01/07 15:20:01;;;;;;;6.43;3.80;;;2.20;99.90;;;;;;5094906;28;20036;-64
2022/01/07 15:23:28;;;;;;;12.15;6.28;;;2.30;99.90;;;;;;5095558;28;20039;-63
2022/01/07 15:26:52;;;;;;;7.32;4.15;;;2.20;99.90;;;;;;5089706;28;20044;-64
2022/01/07 15:30:17;;;;;;;10.60;4.40;;;2.20;99.90;;;;;;5088139;28;20071;-64
2022/01/07 15:33:43;;;;;;;12.60;4.85;;;2.20;99.90;;;;;;5108357;28;20122;-64
2022/01/07 15:37:09;;;;;;;12.85;4.93;;;2.20;99.90;;;;;;5092362;28;20028;-63
2022/01/07 15:40:33;;;;;;;9.65;4.57;;;2.20;99.90;;;;;;5101755;28;20100;-63
2022/01/07 15:43:59;;;;;;;14.90;6.18;;;2.20;99.90;;;;;;5090036;28;20051;-65
2022/01/07 15:47:24;;;;;;;11.82;6.32;;;2.20;99.90;;;;;;5089654;28;20680;-65
2022/01/07 15:50:50;;;;;;;6.55;3.83;;;2.20;99.90;;;;;;5087187;28;20119;-64
2022/01/07 15:54:15;;;;;;;9.35;4.95;;;2.20;99.90;;;;;;5103407;28;20043;-65
2022/01/07 15:57:40;;;;;;;9.55;3.92;;;2.20;99.90;;;;;;5104177;28;20035;-64
2022/01/07 16:01:08;;;;;;;13.27;4.88;;;2.20;99.90;;;;;;5092343;28;20118;-64
2022/01/07 16:04:31;;;;;;;9.27;4.25;;;2.20;99.90;;;;;;5105277;28;20042;-64
2022/01/07 16:07:56;;;;;;;7.95;4.18;;;2.10;99.90;;;;;;5085726;28;20024;-65